Terminal Aerodrome Forecast
Issued by NWS

Home | Current Version | Previous Version | Graphics & Text | Print | Product List | Glossary On
Versions: 1 2 3 4 5 6 7 8 9 10 11 12 13 14 15
000
FTUS43 KICT 241123
TAFRSL
TAF
KRSL 241123Z 2412/2512 27015KT P6SM FEW150
     FM241600 32021G30KT P6SM FEW100
     FM242300 32010KT P6SM BKN250=

USA.gov is the U.S. government's official web portal to all federal, state and local government web resources and services.